Sand Creek, Michigan
Current Conditions -  °F | °C
As of 4:25 AM on Thursday 27 Nov 2014 (Local Time) from KADG Reporting Station
Overcast Overcast  
Wind Chill: 21°   Ceiling: 4900
Heat Index: 28°   Visibility: 10mi
Dew Point: 23°   Wind: 7mph
Humidity: 81%   Direction: 350°N
Pressure: 30.12"   Gusts: NA
Location:  41.83°N, 84.1°W
Report Text: KADG 270925Z AUTO 35006KT 10SM SCT018 OVC049 M02/M05 A3012 RMK AO2 T10221050
Loading
Personal Weather Stations






























Interactive Weather Map New forecast layout! Learn more

10-Day Weather Forecast

Advertisements
Track Severe Weather on mobile